createdAt,value
2019-03-30T00:01:00.782Z,81.00
2019-03-30T00:03:31.089Z,81.20
2019-03-30T00:06:00.789Z,81.10
2019-03-30T00:08:30.702Z,81.20
2019-03-30T00:11:00.311Z,81.40
2019-03-30T00:13:29.887Z,81.40
2019-03-30T00:15:59.826Z,81.50
2019-03-30T00:18:29.750Z,81.50
2019-03-30T00:20:59.335Z,81.50
2019-03-30T00:23:29.271Z,81.40
2019-03-30T00:25:58.970Z,81.50
2019-03-30T00:28:28.891Z,81.60
2019-03-30T00:30:58.168Z,82.20
2019-03-30T00:33:28.073Z,81.40
2019-03-30T00:35:57.679Z,81.50
2019-03-30T00:38:27.322Z,81.50
2019-03-30T00:40:56.636Z,81.40
2019-03-30T00:43:26.703Z,81.60
2019-03-30T00:45:56.288Z,81.50
2019-03-30T00:48:25.657Z,82.20
2019-03-30T00:50:55.771Z,81.50
2019-03-30T00:53:25.388Z,81.70
2019-03-30T00:55:55.554Z,81.70
2019-03-30T00:58:25.735Z,81.80
2019-03-30T01:00:55.614Z,81.60
2019-03-30T01:03:24.909Z,81.70
2019-03-30T01:05:54.564Z,81.70
2019-03-30T01:08:24.156Z,81.80
2019-03-30T01:10:53.566Z,81.90
2019-03-30T01:13:22.855Z,81.90
2019-03-30T01:15:52.727Z,82.50
2019-03-30T01:18:22.632Z,81.90
2019-03-30T01:20:52.059Z,81.80
2019-03-30T01:23:21.354Z,81.90
2019-03-30T01:25:51.233Z,81.90
2019-03-30T01:28:20.626Z,82.00
2019-03-30T01:30:50.151Z,82.20
2019-03-30T01:33:20.436Z,82.30
2019-03-30T01:35:50.050Z,82.40
2019-03-30T01:38:19.696Z,82.50
2019-03-30T01:40:49.866Z,82.60
2019-03-30T01:43:19.482Z,82.60
2019-03-30T01:45:49.085Z,82.60
2019-03-30T01:48:18.697Z,82.60
2019-03-30T01:50:48.049Z,82.60
2019-03-30T01:53:17.432Z,82.80
2019-03-30T01:55:47.281Z,82.70
2019-03-30T01:58:16.998Z,82.70
2019-03-30T02:00:46.932Z,82.70
2019-03-30T02:03:17.201Z,82.70
2019-03-30T02:05:47.183Z,83.40
2019-03-30T02:08:16.908Z,82.70
2019-03-30T02:10:47.632Z,82.70
2019-03-30T02:13:17.074Z,82.60
2019-03-30T02:15:47.256Z,82.60
2019-03-30T02:18:16.862Z,82.70
2019-03-30T02:20:47.634Z,82.80
2019-03-30T02:23:16.989Z,83.00
2019-03-30T02:25:46.446Z,82.70
2019-03-30T02:28:15.937Z,82.90
2019-03-30T02:30:45.329Z,82.70
2019-03-30T02:33:14.924Z,82.70
2019-03-30T02:35:44.516Z,82.80
2019-03-30T02:38:13.817Z,83.00
2019-03-30T02:40:43.414Z,83.00
2019-03-30T02:43:13.442Z,83.00
2019-03-30T02:45:42.994Z,83.00
2019-03-30T02:48:45.630Z,83.80
2019-03-30T02:51:15.348Z,83.10
2019-03-30T02:53:45.259Z,83.80
2019-03-30T02:56:14.666Z,83.20
2019-03-30T02:58:44.090Z,83.40
2019-03-30T03:01:13.497Z,83.40
2019-03-30T03:03:43.178Z,83.30
2019-03-30T03:06:12.579Z,83.30
2019-03-30T03:08:42.353Z,82.80
2019-03-30T03:11:11.757Z,84.10
2019-03-30T03:13:41.244Z,83.40
2019-03-30T03:16:10.579Z,83.40
2019-03-30T03:18:39.952Z,83.40
2019-03-30T03:21:09.292Z,83.40
2019-03-30T03:23:39.006Z,83.50
2019-03-30T03:26:08.430Z,83.50
2019-03-30T03:28:37.904Z,83.60
2019-03-30T03:31:07.294Z,83.70
2019-03-30T03:33:37.193Z,83.50
2019-03-30T03:36:06.783Z,83.70
2019-03-30T03:38:36.355Z,83.70
2019-03-30T03:41:05.721Z,83.70
2019-03-30T03:43:35.127Z,83.60
2019-03-30T03:46:05.151Z,83.50
2019-03-30T03:48:34.572Z,83.70
2019-03-30T03:51:05.108Z,83.80
2019-03-30T03:53:35.698Z,83.90
2019-03-30T03:56:06.218Z,84.70
2019-03-30T03:58:35.813Z,84.00
2019-03-30T04:01:05.880Z,84.00
2019-03-30T04:03:36.118Z,84.20
2019-03-30T04:06:06.981Z,84.10
2019-03-30T04:08:36.842Z,84.20
2019-03-30T04:11:07.179Z,84.30
2019-03-30T04:13:38.607Z,84.40
2019-03-30T04:16:08.579Z,84.40
2019-03-30T04:18:38.287Z,84.50
2019-03-30T04:21:07.884Z,84.60
2019-03-30T04:23:37.225Z,84.60
2019-03-30T04:26:06.662Z,84.60
2019-03-30T04:28:36.091Z,84.50
2019-03-30T04:31:05.498Z,84.70
2019-03-30T04:33:35.166Z,85.40
2019-03-30T04:36:04.819Z,84.80
2019-03-30T04:38:34.438Z,84.80
2019-03-30T04:41:03.830Z,84.90
2019-03-30T04:43:33.473Z,84.90
2019-03-30T04:46:02.808Z,85.00
2019-03-30T04:48:32.242Z,85.00
2019-03-30T04:51:01.731Z,84.90
2019-03-30T04:53:31.152Z,85.00
2019-03-30T04:56:00.510Z,84.90
2019-03-30T04:58:29.854Z,85.10
2019-03-30T05:00:59.354Z,85.00
2019-03-30T05:03:28.806Z,85.10
2019-03-30T05:05:58.371Z,85.20
2019-03-30T05:08:27.789Z,85.10
2019-03-30T05:10:57.207Z,85.20
2019-03-30T05:13:26.646Z,85.20
2019-03-30T05:15:55.993Z,85.10
2019-03-30T05:18:25.572Z,85.20
2019-03-30T05:20:55.474Z,85.10
2019-03-30T05:23:24.805Z,85.10
2019-03-30T05:25:54.241Z,85.00
2019-03-30T05:28:23.951Z,85.10
2019-03-30T05:30:53.614Z,85.10
2019-03-30T05:33:23.027Z,85.10
2019-03-30T05:35:52.773Z,85.20
2019-03-30T05:38:22.311Z,85.20
2019-03-30T05:40:51.900Z,85.30
2019-03-30T05:43:21.264Z,85.40
2019-03-30T05:45:50.991Z,85.50
2019-03-30T05:48:20.601Z,85.60
2019-03-30T05:50:50.259Z,85.60
2019-03-30T05:53:19.723Z,85.60
2019-03-30T05:55:49.206Z,85.50
2019-03-30T05:58:18.714Z,85.50
2019-03-30T06:00:48.222Z,85.70
2019-03-30T06:03:17.603Z,85.60
2019-03-30T06:05:46.998Z,85.60
2019-03-30T06:08:16.692Z,85.70
2019-03-30T06:10:46.107Z,86.30
2019-03-30T06:13:16.030Z,85.70
2019-03-30T06:15:45.475Z,85.50
2019-03-30T06:18:14.826Z,85.60
2019-03-30T06:20:44.202Z,85.70
2019-03-30T06:23:13.865Z,85.70
2019-03-30T06:25:43.454Z,85.60
2019-03-30T06:28:13.231Z,85.70
2019-03-30T06:30:42.818Z,85.70
2019-03-30T06:33:12.294Z,85.80
2019-03-30T06:35:41.727Z,85.70
2019-03-30T06:38:11.099Z,85.60
2019-03-30T06:40:40.503Z,85.40
2019-03-30T06:43:09.960Z,85.30
2019-03-30T06:45:39.620Z,85.20
2019-03-30T06:48:08.981Z,85.00
2019-03-30T06:50:38.864Z,85.00
2019-03-30T06:53:08.253Z,84.90
2019-03-30T06:55:37.914Z,84.80
2019-03-30T06:58:07.331Z,84.70
2019-03-30T07:00:37.134Z,84.60
2019-03-30T07:03:08.215Z,84.60
2019-03-30T07:05:40.966Z,84.50
2019-03-30T07:08:13.598Z,84.30
2019-03-30T07:10:44.894Z,84.20
2019-03-30T07:13:15.305Z,84.20
2019-03-30T07:15:48.936Z,84.20
2019-03-30T07:18:18.533Z,84.20
2019-03-30T07:20:48.602Z,84.20
2019-03-30T07:23:18.017Z,84.20
2019-03-30T07:25:47.885Z,84.10
2019-03-30T07:28:17.797Z,84.00
2019-03-30T07:30:47.401Z,84.10
2019-03-30T07:33:17.220Z,84.20
2019-03-30T07:35:46.917Z,84.30
2019-03-30T07:38:16.337Z,84.20
2019-03-30T07:40:46.032Z,84.20
2019-03-30T07:43:15.710Z,84.20
2019-03-30T07:45:45.286Z,84.30
2019-03-30T07:48:14.954Z,84.30
2019-03-30T07:50:44.403Z,84.40
2019-03-30T07:53:25.556Z,84.30
2019-03-30T07:55:45.315Z,84.20
2019-03-30T07:58:14.728Z,84.30
2019-03-30T08:00:44.267Z,84.40
2019-03-30T08:03:13.695Z,84.60
2019-03-30T08:05:43.180Z,84.40
2019-03-30T08:08:12.881Z,84.20
2019-03-30T08:10:42.710Z,84.20
2019-03-30T08:13:12.371Z,84.20
2019-03-30T08:15:41.770Z,84.20
2019-03-30T08:18:11.142Z,83.20
2019-03-30T08:20:40.518Z,83.20
2019-03-30T08:23:09.862Z,83.10
2019-03-30T08:25:39.339Z,83.10
2019-03-30T08:28:09.191Z,83.10
2019-03-30T08:30:40.274Z,83.00
2019-03-30T08:33:10.046Z,83.00
2019-03-30T08:35:39.423Z,82.90
2019-03-30T08:38:08.833Z,82.80
2019-03-30T08:40:38.294Z,82.70
2019-03-30T08:43:07.978Z,82.70
2019-03-30T08:45:37.725Z,82.50
2019-03-30T08:48:07.585Z,82.50
2019-03-30T08:50:37.526Z,82.30
2019-03-30T08:53:07.035Z,82.10
2019-03-30T08:55:36.747Z,82.10
2019-03-30T08:58:06.123Z,81.90
2019-03-30T09:00:41.100Z,81.90
2019-03-30T09:03:11.177Z,81.80
2019-03-30T09:05:40.657Z,81.80
2019-03-30T09:08:10.211Z,81.90
2019-03-30T09:10:39.809Z,81.60
2019-03-30T09:13:09.601Z,81.50
2019-03-30T09:15:39.421Z,81.40
2019-03-30T09:18:09.132Z,81.20
2019-03-30T09:20:38.573Z,81.00
2019-03-30T09:23:07.966Z,80.90
2019-03-30T09:25:37.456Z,80.70
2019-03-30T09:28:07.078Z,80.70
2019-03-30T09:30:36.930Z,80.60
2019-03-30T09:33:06.625Z,80.60
2019-03-30T09:35:35.997Z,80.40
2019-03-30T09:38:05.815Z,80.40
2019-03-30T09:40:35.538Z,80.40
2019-03-30T09:43:05.523Z,80.20
2019-03-30T09:45:35.190Z,80.10
2019-03-30T09:48:04.670Z,79.70
2019-03-30T09:50:34.366Z,79.40
2019-03-30T09:53:03.787Z,79.00
2019-03-30T09:55:33.749Z,78.50
2019-03-30T09:58:03.594Z,78.10
2019-03-30T10:00:33.067Z,77.70
2019-03-30T10:03:05.890Z,77.40
2019-03-30T10:05:33.967Z,77.00
2019-03-30T10:08:03.540Z,76.90
2019-03-30T10:10:33.389Z,76.90
2019-03-30T10:13:02.698Z,77.00
2019-03-30T10:15:32.412Z,76.70
2019-03-30T10:18:01.794Z,76.40
2019-03-30T10:20:31.299Z,76.20
2019-03-30T10:23:00.981Z,76.10
2019-03-30T10:25:30.795Z,75.70
2019-03-30T10:28:00.220Z,75.40
2019-03-30T10:30:29.881Z,75.30
2019-03-30T10:32:59.766Z,74.60
2019-03-30T10:35:29.134Z,74.90
2019-03-30T10:37:58.838Z,74.80
2019-03-30T10:40:28.181Z,74.60
2019-03-30T10:42:57.546Z,74.10
2019-03-30T10:45:26.958Z,74.10
2019-03-30T10:47:56.658Z,74.00
2019-03-30T10:50:26.158Z,73.80
2019-03-30T10:52:55.657Z,73.90
2019-03-30T10:55:24.983Z,73.60
2019-03-30T10:57:54.768Z,72.60
2019-03-30T11:00:49.339Z,73.80
2019-03-30T11:03:18.800Z,73.30
2019-03-30T11:05:48.579Z,73.60
2019-03-30T11:08:17.971Z,73.80
2019-03-30T11:10:47.443Z,73.60
2019-03-30T11:13:17.113Z,73.40
2019-03-30T11:15:47.110Z,73.20
2019-03-30T11:18:16.459Z,72.90
2019-03-30T11:20:45.834Z,72.70
2019-03-30T11:23:15.531Z,72.30
2019-03-30T11:25:44.911Z,72.00
2019-03-30T11:28:14.541Z,71.70
2019-03-30T11:30:44.030Z,71.50
2019-03-30T11:33:13.450Z,71.80
2019-03-30T11:35:42.828Z,71.20
2019-03-30T11:38:12.480Z,70.80
2019-03-30T11:40:42.054Z,70.50
2019-03-30T11:43:11.905Z,70.30
2019-03-30T11:45:41.471Z,69.80
2019-03-30T11:48:11.089Z,69.90
2019-03-30T11:50:40.490Z,69.80
2019-03-30T11:53:09.879Z,70.00
2019-03-30T11:55:39.215Z,69.30
2019-03-30T11:58:08.823Z,68.30
2019-03-30T12:00:38.466Z,68.90
2019-03-30T12:03:07.970Z,68.70
2019-03-30T12:05:37.314Z,69.00
2019-03-30T12:08:07.030Z,69.00
2019-03-30T12:10:36.742Z,68.80
2019-03-30T12:13:06.196Z,68.60
2019-03-30T12:15:35.949Z,68.30
2019-03-30T12:18:05.879Z,68.50
2019-03-30T12:20:35.258Z,68.30
2019-03-30T12:23:04.709Z,68.10
2019-03-30T12:25:35.743Z,67.80
2019-03-30T12:28:05.425Z,67.60
2019-03-30T12:30:34.984Z,67.00
2019-03-30T12:33:05.948Z,67.40
2019-03-30T12:35:35.265Z,67.20
2019-03-30T12:38:04.894Z,67.00
2019-03-30T12:40:34.241Z,67.10
2019-03-30T12:45:39.145Z,66.50
2019-03-30T12:48:08.896Z,66.40
2019-03-30T12:50:38.620Z,66.30
2019-03-30T12:53:07.974Z,66.40
2019-03-30T12:55:48.577Z,66.10
2019-03-30T12:58:08.486Z,66.40
2019-03-30T13:00:37.878Z,66.40
2019-03-30T13:03:07.442Z,65.80
2019-03-30T13:05:37.128Z,65.10
2019-03-30T13:08:06.736Z,65.10
2019-03-30T13:10:36.394Z,65.30
2019-03-30T13:13:06.105Z,65.10
2019-03-30T13:15:36.277Z,65.00
2019-03-30T13:18:05.866Z,65.00
2019-03-30T13:20:35.595Z,65.10
2019-03-30T13:23:05.303Z,64.50
2019-03-30T13:25:35.065Z,64.80
2019-03-30T13:28:04.682Z,64.60
2019-03-30T13:30:34.316Z,63.40
2019-03-30T13:33:04.349Z,64.10
2019-03-30T13:35:33.690Z,64.10
2019-03-30T13:38:03.354Z,63.40
2019-03-30T13:40:32.967Z,63.80
2019-03-30T13:43:03.119Z,63.80
2019-03-30T13:45:32.895Z,63.90
2019-03-30T13:48:02.607Z,63.90
2019-03-30T13:50:31.950Z,63.00
2019-03-30T13:53:01.449Z,63.00
2019-03-30T13:55:31.002Z,63.30
2019-03-30T13:58:00.890Z,62.20
2019-03-30T14:00:30.471Z,62.00
2019-03-30T14:02:59.984Z,62.50
2019-03-30T14:05:29.330Z,63.10
2019-03-30T14:07:58.851Z,63.10
2019-03-30T14:10:28.235Z,62.90
2019-03-30T14:12:57.615Z,63.80
2019-03-30T14:15:27.274Z,62.20
2019-03-30T14:17:57.087Z,62.20
2019-03-30T14:20:26.410Z,62.50
2019-03-30T14:22:55.976Z,62.10
2019-03-30T14:25:25.397Z,62.40
2019-03-30T14:27:55.003Z,62.30
2019-03-30T14:30:24.623Z,62.00
2019-03-30T14:32:54.093Z,61.70
2019-03-30T14:35:23.439Z,61.50
2019-03-30T14:37:52.869Z,61.20
2019-03-30T14:40:22.527Z,61.30
2019-03-30T14:42:51.896Z,60.80
2019-03-30T14:45:21.639Z,61.10
2019-03-30T14:47:51.971Z,61.30
2019-03-30T14:50:21.406Z,60.20
2019-03-30T14:52:51.012Z,59.90
2019-03-30T14:55:20.994Z,60.20
2019-03-30T14:57:50.883Z,61.00
2019-03-30T15:00:20.612Z,60.80
2019-03-30T15:02:50.531Z,60.60
2019-03-30T15:05:20.247Z,59.60
2019-03-30T15:07:50.225Z,60.00
2019-03-30T15:10:20.052Z,60.30
2019-03-30T15:12:49.734Z,59.90
2019-03-30T15:15:19.912Z,59.30
2019-03-30T15:17:49.359Z,60.20
2019-03-30T15:20:18.873Z,59.40
2019-03-30T15:22:50.028Z,59.30
2019-03-30T15:25:19.530Z,58.90
2019-03-30T15:27:51.131Z,59.00
2019-03-30T15:30:20.869Z,59.00
2019-03-30T15:32:50.734Z,59.00
2019-03-30T15:35:20.187Z,59.80
2019-03-30T15:37:49.820Z,60.20
2019-03-30T15:40:19.615Z,59.80
2019-03-30T15:42:49.093Z,59.50
2019-03-30T15:45:18.514Z,58.90
2019-03-30T15:47:47.914Z,59.00
2019-03-30T15:50:17.522Z,58.40
2019-03-30T15:52:46.991Z,59.10
2019-03-30T15:55:16.643Z,59.20
2019-03-30T15:57:46.702Z,58.70
2019-03-30T16:00:16.859Z,59.00
2019-03-30T16:02:46.649Z,58.90
2019-03-30T16:05:17.211Z,59.30
2019-03-30T16:07:48.597Z,59.80
2019-03-30T16:10:18.028Z,59.90
2019-03-30T16:12:47.695Z,60.10
2019-03-30T16:15:17.289Z,60.30
2019-03-30T16:17:49.159Z,60.30
2019-03-30T16:20:18.686Z,60.30
2019-03-30T16:22:48.285Z,59.90
2019-03-30T16:25:17.951Z,60.40
2019-03-30T16:27:48.312Z,60.60
2019-03-30T16:30:20.614Z,60.60
2019-03-30T16:32:50.704Z,60.70
2019-03-30T16:35:22.621Z,60.50
2019-03-30T16:37:53.044Z,60.10
2019-03-30T16:40:22.837Z,60.60
2019-03-30T16:42:56.358Z,60.50
2019-03-30T16:45:25.811Z,60.80
2019-03-30T16:47:55.274Z,60.90
2019-03-30T16:50:24.646Z,61.10
2019-03-30T16:52:54.350Z,61.10
2019-03-30T16:55:24.799Z,61.30
2019-03-30T16:57:54.877Z,61.00
2019-03-30T17:00:24.406Z,61.40
2019-03-30T17:02:54.118Z,61.60
2019-03-30T17:05:23.706Z,61.20
2019-03-30T17:07:54.255Z,61.60
2019-03-30T17:10:24.075Z,61.80
2019-03-30T17:12:53.549Z,62.00
2019-03-30T17:15:22.892Z,62.20
2019-03-30T17:17:52.574Z,62.30
2019-03-30T17:20:21.984Z,62.50
2019-03-30T17:22:51.560Z,62.50
2019-03-30T17:25:21.570Z,62.30
2019-03-30T17:27:58.093Z,62.70
2019-03-30T17:30:22.498Z,63.00
2019-03-30T17:32:51.856Z,63.00
2019-03-30T17:35:21.767Z,62.90
2019-03-30T17:37:52.602Z,63.10
2019-03-30T17:40:22.806Z,63.10
2019-03-30T17:42:53.069Z,63.30
2019-03-30T17:45:22.870Z,63.30
2019-03-30T17:47:54.131Z,63.40
2019-03-30T17:50:24.029Z,63.30
2019-03-30T17:52:54.630Z,63.40
2019-03-30T17:55:33.529Z,63.40
2019-03-30T17:58:11.968Z,63.30
2019-03-30T18:00:29.851Z,63.60
2019-03-30T18:03:00.047Z,63.70
2019-03-30T18:05:33.149Z,64.60
2019-03-30T18:08:02.045Z,63.60
2019-03-30T18:10:32.655Z,63.70
2019-03-30T18:13:02.307Z,64.00
2019-03-30T18:15:34.743Z,64.00
2019-03-30T18:18:03.164Z,64.10
2019-03-30T18:20:32.682Z,64.10
2019-03-30T18:23:02.270Z,64.20
2019-03-30T18:25:32.671Z,64.20
2019-03-30T18:28:02.921Z,64.20
2019-03-30T18:30:38.987Z,64.30
2019-03-30T18:33:08.732Z,64.40
2019-03-30T18:35:41.045Z,64.40
2019-03-30T18:38:12.873Z,64.50
2019-03-30T18:40:43.109Z,64.60
2019-03-30T18:43:13.873Z,64.60
2019-03-30T18:45:43.367Z,64.70
2019-03-30T18:48:15.151Z,64.70
2019-03-30T18:50:45.835Z,64.70
2019-03-30T18:53:17.198Z,64.80
2019-03-30T18:55:47.843Z,64.90
2019-03-30T18:58:18.794Z,64.90
2019-03-30T19:00:48.438Z,64.90
2019-03-30T19:03:20.067Z,65.10
2019-03-30T19:05:49.245Z,65.10
2019-03-30T19:08:19.307Z,65.10
2019-03-30T19:10:48.760Z,65.20
2019-03-30T19:13:18.392Z,65.30
2019-03-30T19:15:47.994Z,65.40
2019-03-30T19:18:17.834Z,65.60
2019-03-30T19:20:47.618Z,65.60
2019-03-30T19:23:17.513Z,65.70
2019-03-30T19:25:47.110Z,65.80
2019-03-30T19:28:17.302Z,65.80
2019-03-30T19:30:47.899Z,65.80
2019-03-30T19:33:18.301Z,65.80
2019-03-30T19:35:48.030Z,65.90
2019-03-30T19:38:17.769Z,66.00
2019-03-30T19:40:47.502Z,66.10
2019-03-30T19:43:17.339Z,66.20
2019-03-30T19:45:47.282Z,66.20
2019-03-30T19:48:17.043Z,66.30
2019-03-30T19:50:47.383Z,66.50
2019-03-30T19:53:17.151Z,66.40
2019-03-30T19:55:46.844Z,66.50
2019-03-30T19:58:17.059Z,66.50
2019-03-30T20:00:46.506Z,66.60
2019-03-30T20:03:16.377Z,67.10
2019-03-30T20:05:46.091Z,66.80
2019-03-30T20:08:15.914Z,66.90
2019-03-30T20:10:45.615Z,67.00
2019-03-30T20:13:15.225Z,67.00
2019-03-30T20:15:44.746Z,67.00
2019-03-30T20:18:14.427Z,67.20
2019-03-30T20:20:43.818Z,67.10
2019-03-30T20:23:13.259Z,67.10
2019-03-30T20:25:43.063Z,67.30
2019-03-30T20:28:12.454Z,67.40
2019-03-30T20:30:42.072Z,66.70
2019-03-30T20:33:12.155Z,67.50
2019-03-30T20:35:41.902Z,67.60
2019-03-30T20:38:11.232Z,67.70
2019-03-30T20:40:40.671Z,67.70
2019-03-30T20:43:10.627Z,67.60
2019-03-30T20:45:40.327Z,67.80
2019-03-30T20:48:10.068Z,67.80
2019-03-30T20:50:39.749Z,67.90
2019-03-30T20:53:09.771Z,67.90
2019-03-30T20:55:39.146Z,68.10
2019-03-30T20:58:08.809Z,69.20
2019-03-30T21:00:38.311Z,69.30
2019-03-30T21:03:07.808Z,68.80
2019-03-30T21:05:37.495Z,69.40
2019-03-30T21:08:07.106Z,69.50
2019-03-30T21:10:36.823Z,69.70
2019-03-30T21:13:06.440Z,69.60
2019-03-30T21:15:35.862Z,69.80
2019-03-30T21:18:05.267Z,69.90
2019-03-30T21:20:34.761Z,69.80
2019-03-30T21:23:04.730Z,69.90
2019-03-30T21:25:34.081Z,70.00
2019-03-30T21:28:03.534Z,69.90
2019-03-30T21:30:32.971Z,70.00
2019-03-30T21:33:03.789Z,70.10
2019-03-30T21:38:09.595Z,70.20
2019-03-30T21:40:39.283Z,70.30
2019-03-30T21:43:08.934Z,70.50
2019-03-30T21:45:39.009Z,70.60
2019-03-30T21:48:08.913Z,70.70
2019-03-30T21:50:38.403Z,70.80
2019-03-30T21:53:08.481Z,70.80
2019-03-30T21:55:37.831Z,70.80
2019-03-30T21:58:08.088Z,70.90
2019-03-30T22:00:39.055Z,71.70
2019-03-30T22:03:08.750Z,71.00
2019-03-30T22:05:38.339Z,71.00
2019-03-30T22:08:08.005Z,71.00
2019-03-30T22:10:37.643Z,71.00
2019-03-30T22:13:07.234Z,71.00
2019-03-30T22:15:36.952Z,71.10
2019-03-30T22:18:07.076Z,71.10
2019-03-30T22:20:37.184Z,71.30
2019-03-30T22:23:07.622Z,71.20
2019-03-30T22:25:39.579Z,71.30
2019-03-30T22:28:09.882Z,71.40
2019-03-30T22:30:40.266Z,71.50
2019-03-30T22:33:09.686Z,71.60
2019-03-30T22:35:39.902Z,71.70
2019-03-30T22:38:09.675Z,71.70
2019-03-30T22:40:41.435Z,71.40
2019-03-30T22:43:11.801Z,72.00
2019-03-30T22:45:41.298Z,71.70
2019-03-30T22:48:11.533Z,71.90
2019-03-30T22:50:40.932Z,72.00
2019-03-30T22:53:10.341Z,72.00
2019-03-30T22:55:40.037Z,72.10
2019-03-30T22:58:09.902Z,72.40
2019-03-30T23:01:14.514Z,72.40
2019-03-30T23:03:45.650Z,72.50
2019-03-30T23:06:16.319Z,72.60
2019-03-30T23:08:46.399Z,72.60
2019-03-30T23:11:16.780Z,72.60
2019-03-30T23:13:47.155Z,72.70
2019-03-30T23:16:17.138Z,72.70
2019-03-30T23:18:46.609Z,72.70
2019-03-30T23:21:16.327Z,72.70
2019-03-30T23:23:45.693Z,72.60
2019-03-30T23:26:16.157Z,72.50
2019-03-30T23:28:45.960Z,72.40
2019-03-30T23:31:15.675Z,72.50
2019-03-30T23:33:45.524Z,72.60
2019-03-30T23:36:14.994Z,72.70
2019-03-30T23:38:45.014Z,72.70
2019-03-30T23:41:15.167Z,72.80
2019-03-30T23:43:44.522Z,73.00
2019-03-30T23:46:14.142Z,72.90
2019-03-30T23:48:43.954Z,73.00
2019-03-30T23:51:13.668Z,73.10
2019-03-30T23:53:43.683Z,73.00
2019-03-30T23:56:23.946Z,73.10
2019-03-30T23:58:53.436Z,73.10
